Time;durP1;ratioP1;P1;durP2;ratioP2;P2;SDS_P1;SDS_P2;PMS_P1;PMS_P2;Temp;Humidity;BMP_temperature;BMP_pressure;BME280_temperature;BME280_humidity;BME280_pressure;Samples;Min_cycle;Max_cycle;Signal;HPM_P1;HPM_P2
2022/11/25 00:00:26;;;;;;;;;6.00;3.67;;;;;-146.44;100.00;58906.56;5015361;28;45428;-58
2022/11/25 00:02:51;;;;;;;;;3.00;3.00;;;;;-146.44;100.00;58906.56;5014930;28;45664;-57
2022/11/25 00:05:16;;;;;;;;;1.67;1.67;;;;;-146.44;100.00;58906.56;5014697;28;55139;-55
2022/11/25 00:07:42;;;;;;;;;3.33;3.33;;;;;-146.44;100.00;58906.56;5015058;28;45340;-59
2022/11/25 00:10:07;;;;;;;;;2.00;2.00;;;;;-146.44;100.00;58906.56;5015231;28;45777;-58
2022/11/25 00:12:33;;;;;;;;;2.67;2.00;;;;;-146.44;100.00;58906.56;5015154;28;45498;-54
2022/11/25 00:14:58;;;;;;;;;4.00;2.67;;;;;-146.44;100.00;58906.56;5014844;28;46129;-56
2022/11/25 00:17:23;;;;;;;;;2.33;2.33;;;;;-146.44;100.00;58906.56;5014869;28;47815;-58
2022/11/25 00:19:49;;;;;;;;;3.00;3.00;;;;;-146.44;100.00;58906.56;5015017;28;45427;-55
2022/11/25 00:22:15;;;;;;;;;1.33;1.00;;;;;-146.44;100.00;58906.56;5015074;28;45609;-55
2022/11/25 00:24:40;;;;;;;;;2.00;2.00;;;;;-146.44;100.00;58906.56;5014459;28;46030;-58
2022/11/25 00:27:06;;;;;;;;;3.00;2.00;;;;;-146.44;100.00;58906.56;5015152;28;45519;-57
2022/11/25 00:29:31;;;;;;;;;3.00;3.00;;;;;-146.44;100.00;58906.56;5014498;28;45414;-56
2022/11/25 00:31:57;;;;;;;;;4.67;3.67;;;;;-146.44;100.00;58906.56;5014683;28;46228;-58
2022/11/25 00:34:22;;;;;;;;;4.00;2.00;;;;;-146.44;100.00;58906.56;5013293;28;45562;-57
2022/11/25 00:36:47;;;;;;;;;2.00;2.00;;;;;-146.44;100.00;58906.56;5014628;28;45466;-58
2022/11/25 00:39:15;;;;;;;;;4.00;3.00;;;;;-146.44;100.00;58906.56;5014848;28;45463;-58
2022/11/25 00:44:34;;;;;;;;;2.67;2.00;;;;;-146.44;100.00;58906.56;5014494;28;45462;-59
2022/11/25 00:47:03;;;;;;;;;4.00;2.00;;;;;-146.44;100.00;58906.56;5014868;28;45601;-53
2022/11/25 00:49:28;;;;;;;;;5.33;5.33;;;;;-146.44;100.00;58906.56;5014493;28;45454;-55
2022/11/25 00:51:54;;;;;;;;;4.33;3.33;;;;;-146.44;100.00;58906.56;5014377;28;45435;-55
2022/11/25 00:54:19;;;;;;;;;3.33;3.00;;;;;-146.44;100.00;58906.56;5014041;28;46349;-54
2022/11/25 00:56:45;;;;;;;;;2.33;2.33;;;;;-146.44;100.00;58906.56;5014348;28;45509;-58
2022/11/25 00:59:10;;;;;;;;;3.00;1.33;;;;;-146.44;100.00;58906.56;5014418;28;45483;-58
2022/11/25 01:01:36;;;;;;;;;4.00;3.00;;;;;-146.44;100.00;58906.56;5014263;28;45475;-57
2022/11/25 01:04:02;;;;;;;;;2.00;2.00;;;;;-146.44;100.00;58906.56;5014185;28;46221;-57
2022/11/25 01:06:27;;;;;;;;;4.00;4.00;;;;;-146.44;100.00;58906.56;5014169;28;45552;-54
2022/11/25 01:08:53;;;;;;;;;4.67;3.33;;;;;-146.44;100.00;58906.56;5014345;28;45646;-55
2022/11/25 01:11:20;;;;;;;;;3.67;3.00;;;;;-146.44;100.00;58906.56;5014242;28;45502;-57
2022/11/25 01:13:46;;;;;;;;;3.33;3.33;;;;;-146.44;100.00;58906.56;5014000;28;46223;-58
2022/11/25 01:16:15;;;;;;;;;4.00;4.00;;;;;-146.44;100.00;58906.56;5013886;28;45481;-52
2022/11/25 01:18:42;;;;;;;;;7.00;4.00;;;;;-146.44;100.00;58906.56;5014243;28;46033;-57
2022/11/25 01:21:12;;;;;;;;;3.67;3.67;;;;;-146.44;100.00;58906.56;5014025;28;45664;-55
2022/11/25 01:23:38;;;;;;;;;4.67;3.00;;;;;-146.44;100.00;58906.56;5013779;28;47198;-56
2022/11/25 01:26:06;;;;;;;;;4.00;3.00;;;;;-146.44;100.00;58906.56;5013813;28;45505;-57
2022/11/25 01:28:32;;;;;;;;;2.67;2.67;;;;;-146.44;100.00;58906.56;5013899;28;45529;-57
2022/11/25 01:31:04;;;;;;;;;4.00;4.00;;;;;-146.44;100.00;58906.56;5014060;28;45489;-58
2022/11/25 01:33:33;;;;;;;;;2.00;2.00;;;;;-146.44;100.00;58906.56;5013572;28;46419;-53
2022/11/25 01:36:04;;;;;;;;;4.00;2.67;;;;;-146.44;100.00;58906.56;5013873;28;45458;-55
2022/11/25 01:38:30;;;;;;;;;3.00;3.00;;;;;-146.44;100.00;58906.56;5013663;28;45523;-56
2022/11/25 01:40:56;;;;;;;;;5.67;2.67;;;;;-146.44;100.00;58906.56;5012753;28;45470;-57
2022/11/25 01:43:21;;;;;;;;;2.67;2.67;;;;;-146.44;100.00;58906.56;5013294;28;45750;-56
2022/11/25 01:45:46;;;;;;;;;1.33;1.33;;;;;-146.44;100.00;58906.56;5013302;28;54550;-56
2022/11/25 01:48:24;;;;;;;;;3.00;3.00;;;;;-146.44;100.00;58906.56;5013751;28;45529;-55
2022/11/25 01:50:50;;;;;;;;;4.00;2.00;;;;;-146.44;100.00;58906.56;5013654;28;45520;-56
2022/11/25 01:53:19;;;;;;;;;2.33;2.33;;;;;-146.44;100.00;58906.56;5013380;28;45527;-56
2022/11/25 01:55:52;;;;;;;;;3.00;2.67;;;;;-146.44;100.00;58906.56;5013417;28;45616;-57
2022/11/25 01:58:29;;;;;;;;;4.00;2.00;;;;;-146.44;100.00;58906.56;5013671;28;45522;-55
2022/11/25 02:00:54;;;;;;;;;2.33;2.33;;;;;-146.44;100.00;58906.56;5013486;28;45453;-56
2022/11/25 02:03:35;;;;;;;;;2.00;2.00;;;;;-146.44;100.00;58906.56;5013217;28;45899;-58
2022/11/25 02:06:12;;;;;;;;;4.00;3.00;;;;;-146.44;100.00;58906.56;5013438;28;45503;-58
2022/11/25 02:08:38;;;;;;;;;1.00;1.00;;;;;-146.44;100.00;58906.56;5013698;28;45500;-53
2022/11/25 02:11:04;;;;;;;;;4.33;4.00;;;;;-146.44;100.00;58906.56;5013350;28;45454;-56
2022/11/25 02:13:32;;;;;;;;;1.00;1.00;;;;;-146.44;100.00;58906.56;5013232;28;46110;-54
2022/11/25 02:15:57;;;;;;;;;2.67;2.67;;;;;-146.44;100.00;58906.56;5012686;28;45422;-52
2022/11/25 02:18:24;;;;;;;;;2.00;2.00;;;;;-146.44;100.00;58906.56;5013341;28;45735;-53
2022/11/25 02:20:49;;;;;;;;;3.00;3.00;;;;;-146.44;100.00;58906.56;5013366;28;45545;-56
2022/11/25 02:23:53;;;;;;;;;2.00;2.00;;;;;-146.44;100.00;58906.56;5012793;28;46127;-53
2022/11/25 02:26:19;;;;;;;;;4.67;2.33;;;;;-146.44;100.00;58906.56;4990919;28;45621;-56
2022/11/25 02:28:45;;;;;;;;;3.00;3.00;;;;;-146.44;100.00;58906.56;4991005;28;45540;-56
2022/11/25 02:31:11;;;;;;;;;3.67;3.67;;;;;-146.44;100.00;58906.56;5001302;28;45465;-56
2022/11/25 02:33:36;;;;;;;;;3.67;2.67;;;;;-146.44;100.00;58906.56;5012945;28;46025;-55
2022/11/25 02:36:09;;;;;;;;;2.67;2.00;;;;;-146.44;100.00;58906.56;5012956;28;45450;-55
2022/11/25 02:38:51;;;;;;;;;2.67;2.67;;;;;-146.44;100.00;58906.56;5013048;28;45494;-55
2022/11/25 02:41:36;;;;;;;;;3.33;3.33;;;;;-146.44;100.00;58906.56;5013136;28;45626;-54
2022/11/25 02:44:02;;;;;;;;;3.00;1.67;;;;;-146.44;100.00;58906.56;5006914;28;45470;-57
2022/11/25 02:46:28;;;;;;;;;3.00;2.00;;;;;-146.44;100.00;58906.56;5011439;28;46243;-58
2022/11/25 02:48:56;;;;;;;;;1.00;1.00;;;;;-146.44;100.00;58906.56;5012897;28;45577;-57
2022/11/25 02:51:25;;;;;;;;;3.67;3.00;;;;;-146.44;100.00;58906.56;5013054;28;45600;-58
2022/11/25 02:53:51;;;;;;;;;4.00;4.00;;;;;-146.44;100.00;58906.56;5015420;28;46480;-55
2022/11/25 02:56:19;;;;;;;;;2.00;2.00;;;;;-146.44;100.00;58906.56;5016060;28;45585;-57
2022/11/25 02:58:44;;;;;;;;;3.67;1.67;;;;;-146.44;100.00;58906.56;5016486;28;45476;-56
2022/11/25 03:01:10;;;;;;;;;3.00;3.00;;;;;-146.44;100.00;58906.56;5015861;28;45469;-55
2022/11/25 03:03:35;;;;;;;;;2.67;2.67;;;;;-146.44;100.00;58906.56;5016120;28;46331;-55
2022/11/25 03:06:01;;;;;;;;;4.67;3.00;;;;;-146.44;100.00;58906.56;5015993;28;45583;-56
2022/11/25 03:08:27;;;;;;;;;4.00;4.00;;;;;-146.44;100.00;58906.56;5016320;28;45491;-56
2022/11/25 03:10:52;;;;;;;;;4.67;2.67;;;;;-146.44;100.00;58906.56;5016285;28;45494;-59
2022/11/25 03:13:17;;;;;;;;;3.67;2.33;;;;;-146.44;100.00;58906.56;5015682;28;45499;-55
2022/11/25 03:15:43;;;;;;;;;3.00;3.00;;;;;-146.44;100.00;58906.56;5016825;28;45486;-57
2022/11/25 03:18:08;;;;;;;;;3.00;2.00;;;;;-146.44;100.00;58906.56;5015861;28;45470;-55
2022/11/25 03:20:35;;;;;;;;;6.00;3.33;;;;;-146.44;100.00;58906.56;5016000;28;45559;-56
2022/11/25 03:23:00;;;;;;;;;3.33;3.33;;;;;-146.44;100.00;58906.56;5015817;28;46195;-55
2022/11/25 03:25:26;;;;;;;;;2.67;2.67;;;;;-146.44;100.00;58906.56;5015517;28;45479;-55
2022/11/25 03:27:51;;;;;;;;;3.33;2.67;;;;;-146.44;100.00;58906.56;5016075;28;45510;-53
2022/11/25 03:30:20;;;;;;;;;5.00;3.00;;;;;-146.44;100.00;58906.56;5015370;28;51577;-54
2022/11/25 03:32:45;;;;;;;;;4.00;3.00;;;;;-146.44;100.00;58906.56;5015595;28;46222;-58
2022/11/25 03:35:11;;;;;;;;;3.67;3.00;;;;;-146.44;100.00;58906.56;5015320;28;45481;-55
2022/11/25 03:37:37;;;;;;;;;2.67;2.67;;;;;-146.44;100.00;58906.56;5015689;28;45461;-54
2022/11/25 03:40:04;;;;;;;;;3.67;3.67;;;;;-146.44;100.00;58906.56;5015899;28;45494;-53
2022/11/25 03:42:29;;;;;;;;;4.00;3.00;;;;;-146.44;100.00;58906.56;5013941;28;46388;-58
2022/11/25 03:44:55;;;;;;;;;3.00;3.00;;;;;-146.44;100.00;58906.56;5015474;28;45548;-59
2022/11/25 03:47:20;;;;;;;;;4.33;4.33;;;;;-146.44;100.00;58906.56;5014404;28;45504;-56
2022/11/25 03:49:45;;;;;;;;;2.00;1.33;;;;;-146.44;100.00;58906.56;5015783;28;45672;-57
2022/11/25 03:52:10;;;;;;;;;2.00;2.00;;;;;-146.44;100.00;58906.56;5015200;28;48440;-56
2022/11/25 03:54:36;;;;;;;;;2.00;2.00;;;;;-146.44;100.00;58906.56;5015485;28;45399;-53
2022/11/25 03:57:01;;;;;;;;;4.00;3.00;;;;;-146.44;100.00;58906.56;5015577;28;45504;-56
2022/11/25 03:59:26;;;;;;;;;2.00;2.00;;;;;-146.44;100.00;58906.56;5015440;28;45579;-56
2022/11/25 04:01:52;;;;;;;;;4.00;2.33;;;;;-146.44;100.00;58906.56;5015099;28;46387;-57
2022/11/25 04:04:17;;;;;;;;;1.67;1.67;;;;;-146.44;100.00;58906.56;5014259;28;47364;-56
2022/11/25 04:06:42;;;;;;;;;3.67;2.33;;;;;-146.44;100.00;58906.56;5015329;28;45548;-55
2022/11/25 04:09:10;;;;;;;;;3.00;3.00;;;;;-146.44;100.00;58906.56;5030466;28;45520;-55
2022/11/25 04:14:20;;;;;;;;;4.00;3.00;;;;;-146.44;100.00;58906.56;5014997;28;45585;-55
2022/11/25 04:16:45;;;;;;;;;2.00;2.00;;;;;-146.44;100.00;58906.56;5015525;28;45479;-53
2022/11/25 04:19:10;;;;;;;;;3.67;2.00;;;;;-146.44;100.00;58906.56;5015055;28;45494;-58
2022/11/25 04:21:36;;;;;;;;;3.33;3.33;;;;;-146.44;100.00;58906.56;5014236;28;57670;-57
2022/11/25 04:24:01;;;;;;;;;2.00;2.00;;;;;-146.44;100.00;58906.56;5014758;28;45418;-56
2022/11/25 04:26:26;;;;;;;;;2.00;2.00;;;;;-146.44;100.00;58906.56;5014956;28;45581;-53
2022/11/25 04:28:52;;;;;;;;;3.00;1.00;;;;;-146.44;100.00;58906.56;5014957;28;45565;-57
2022/11/25 04:31:17;;;;;;;;;2.33;2.00;;;;;-146.44;100.00;58906.56;5014889;28;46101;-56
2022/11/25 04:33:42;;;;;;;;;3.00;3.00;;;;;-146.44;100.00;58906.56;5014581;28;45494;-57
2022/11/25 04:36:08;;;;;;;;;1.67;1.67;;;;;-146.44;100.00;58906.56;5030160;28;45534;-53
2022/11/25 04:38:33;;;;;;;;;4.00;2.67;;;;;-146.44;100.00;58906.56;5014687;28;45671;-55
2022/11/25 04:40:59;;;;;;;;;4.00;3.00;;;;;-146.44;100.00;58906.56;5014555;28;46048;-55
2022/11/25 04:43:24;;;;;;;;;3.00;3.00;;;;;-146.44;100.00;58906.56;5014326;28;45486;-54
2022/11/25 04:45:51;;;;;;;;;3.00;2.00;;;;;-146.44;100.00;58906.56;5014678;28;46750;-54
2022/11/25 04:48:17;;;;;;;;;5.33;4.00;;;;;-146.44;100.00;58906.56;5014728;28;45508;-55
2022/11/25 04:50:42;;;;;;;;;3.00;2.67;;;;;-146.44;100.00;58906.56;5014311;28;45491;-56
2022/11/25 04:53:08;;;;;;;;;2.00;2.00;;;;;-146.44;100.00;58906.56;5014365;28;45521;-56
2022/11/25 04:55:33;;;;;;;;;3.33;3.00;;;;;-146.44;100.00;58906.56;5014520;28;45529;-58
2022/11/25 04:57:59;;;;;;;;;3.67;2.00;;;;;-146.44;100.00;58906.56;5014283;28;45664;-55
2022/11/25 05:00:25;;;;;;;;;3.33;3.33;;;;;-146.44;100.00;58906.56;5014213;28;45489;-58
2022/11/25 05:02:50;;;;;;;;;4.67;2.33;;;;;-146.44;100.00;58906.56;5014076;28;45444;-58
2022/11/25 05:05:15;;;;;;;;;2.00;2.00;;;;;-146.44;100.00;58906.56;5014379;28;45417;-57
2022/11/25 05:07:41;;;;;;;;;4.00;4.00;;;;;-146.44;100.00;58906.56;5014306;28;45646;-55
2022/11/25 05:10:07;;;;;;;;;4.00;3.00;;;;;-146.44;100.00;58906.56;5014187;28;45492;-55
2022/11/25 05:12:33;;;;;;;;;4.00;4.00;;;;;-146.44;100.00;58906.56;5014174;28;45573;-57
2022/11/25 05:14:58;;;;;;;;;5.00;5.00;;;;;-146.44;100.00;58906.56;5014144;28;45553;-58
2022/11/25 05:17:28;;;;;;;;;3.00;3.00;;;;;-146.44;100.00;58906.56;5014924;28;45564;-58
2022/11/25 05:19:53;;;;;;;;;6.00;3.00;;;;;-146.44;100.00;58906.56;5013829;28;45473;-58
2022/11/25 05:22:23;;;;;;;;;3.00;3.00;;;;;-146.44;100.00;58906.56;5012390;28;45718;-55
2022/11/25 05:24:48;;;;;;;;;4.00;4.00;;;;;-146.44;100.00;58906.56;5013564;28;45457;-54
2022/11/25 05:27:14;;;;;;;;;3.00;3.00;;;;;-146.44;100.00;58906.56;5014166;28;45494;-58
2022/11/25 05:29:39;;;;;;;;;4.00;3.00;;;;;-146.44;100.00;58906.56;5013892;28;46059;-57
2022/11/25 05:32:05;;;;;;;;;3.00;3.00;;;;;-146.44;100.00;58906.56;5013595;28;45408;-56
2022/11/25 05:34:30;;;;;;;;;5.33;4.00;;;;;-146.44;100.00;58906.56;5014242;28;45482;-55
2022/11/25 05:36:56;;;;;;;;;2.00;2.00;;;;;-146.44;100.00;58906.56;5013794;28;45446;-56
2022/11/25 05:39:22;;;;;;;;;5.00;3.00;;;;;-146.44;100.00;58906.56;5013656;28;47194;-55
2022/11/25 05:41:47;;;;;;;;;3.33;3.33;;;;;-146.44;100.00;58906.56;5013740;28;45472;-58
2022/11/25 05:44:13;;;;;;;;;2.67;2.67;;;;;-146.44;100.00;58906.56;5029263;28;45551;-56
2022/11/25 05:46:38;;;;;;;;;5.00;5.00;;;;;-146.44;100.00;58906.56;5014033;28;45469;-57
2022/11/25 05:49:03;;;;;;;;;5.00;5.00;;;;;-146.44;100.00;58906.56;5013256;28;45556;-55
2022/11/25 05:51:29;;;;;;;;;3.00;3.00;;;;;-146.44;100.00;58906.56;5028834;28;45573;-56
2022/11/25 05:53:55;;;;;;;;;9.00;9.00;;;;;-146.44;100.00;58906.56;5013801;28;45467;-55
2022/11/25 05:56:21;;;;;;;;;5.00;5.00;;;;;-146.44;100.00;58906.56;5013518;28;45396;-58
2022/11/25 05:58:46;;;;;;;;;5.00;5.00;;;;;-146.44;100.00;58906.56;5013568;28;45517;-58
2022/11/25 06:01:13;;;;;;;;;4.00;4.00;;;;;-146.44;100.00;58906.56;5013490;28;45477;-56
2022/11/25 06:03:40;;;;;;;;;5.00;4.00;;;;;-146.44;100.00;58906.56;5013658;28;45380;-54
2022/11/25 06:06:06;;;;;;;;;4.00;4.00;;;;;-146.44;100.00;58906.56;5013324;28;45584;-56
2022/11/25 06:08:33;;;;;;;;;5.33;3.33;;;;;-146.44;100.00;58906.56;5013294;28;47103;-58
2022/11/25 06:10:58;;;;;;;;;9.33;7.33;;;;;-146.44;100.00;58906.56;5013228;28;45460;-59
2022/11/25 06:13:24;;;;;;;;;6.00;5.00;;;;;-146.44;100.00;58906.56;5013277;28;45428;-57
2022/11/25 06:15:49;;;;;;;;;6.33;4.67;;;;;-146.44;100.00;58906.56;5014140;28;45641;-57
2022/11/25 06:18:16;;;;;;;;;6.00;4.67;;;;;-146.44;100.00;58906.56;5013056;28;45530;-56
2022/11/25 06:20:42;;;;;;;;;3.00;3.00;;;;;-146.44;100.00;58906.56;5013376;28;45561;-57
2022/11/25 06:23:08;;;;;;;;;4.67;3.33;;;;;-146.44;100.00;58906.56;5013208;28;45615;-56
2022/11/25 06:25:33;;;;;;;;;5.67;4.33;;;;;-146.44;100.00;58906.56;5011865;28;45512;-57
2022/11/25 06:27:59;;;;;;;;;3.33;2.00;;;;;-146.44;100.00;58906.56;5014877;28;46064;-55
2022/11/25 06:30:24;;;;;;;;;3.00;3.00;;;;;-146.44;100.00;58906.56;5016610;28;45481;-52
2022/11/25 06:32:50;;;;;;;;;6.00;6.00;;;;;-146.44;100.00;58906.56;5016864;28;45579;-54
2022/11/25 06:35:15;;;;;;;;;4.00;3.33;;;;;-146.44;100.00;58906.56;5016794;28;45680;-55
2022/11/25 06:37:40;;;;;;;;;6.33;5.67;;;;;-146.44;100.00;58906.56;5016474;28;45505;-55
2022/11/25 06:40:07;;;;;;;;;3.00;3.00;;;;;-146.44;100.00;58906.56;5016212;28;45529;-56
2022/11/25 06:42:32;;;;;;;;;6.00;3.00;;;;;-146.44;100.00;58906.56;5016628;28;45510;-54
2022/11/25 06:44:58;;;;;;;;;6.00;3.00;;;;;-146.44;100.00;58906.56;5016431;28;45688;-57
2022/11/25 06:47:23;;;;;;;;;6.33;4.33;;;;;-146.44;100.00;58906.56;5016155;28;46020;-57
2022/11/25 06:49:49;;;;;;;;;6.00;4.67;;;;;-146.44;100.00;58906.56;5016357;28;45555;-56
2022/11/25 06:52:14;;;;;;;;;4.33;4.33;;;;;-146.44;100.00;58906.56;5016210;28;45550;-54
2022/11/25 06:54:40;;;;;;;;;5.00;5.00;;;;;-146.44;100.00;58906.56;5016071;28;45574;-58
2022/11/25 06:57:11;;;;;;;;;5.67;4.67;;;;;-146.44;100.00;58906.56;5016098;28;45477;-57
2022/11/25 06:59:36;;;;;;;;;5.00;5.00;;;;;-146.44;100.00;58906.56;5016057;28;45473;-58
2022/11/25 07:02:02;;;;;;;;;5.00;4.67;;;;;-146.44;100.00;58906.56;5016156;28;45682;-56
2022/11/25 07:04:28;;;;;;;;;5.67;5.00;;;;;-146.44;100.00;58906.56;5016225;28;45488;-58
2022/11/25 07:06:53;;;;;;;;;3.67;3.67;;;;;-146.44;100.00;58906.56;5015960;28;45398;-55
2022/11/25 07:09:19;;;;;;;;;6.00;6.00;;;;;-146.44;100.00;58906.56;5015968;28;45500;-58
2022/11/25 07:11:45;;;;;;;;;4.00;3.00;;;;;-146.44;100.00;58906.56;5016330;28;45581;-57
2022/11/25 07:14:12;;;;;;;;;4.33;4.00;;;;;-146.44;100.00;58906.56;5015759;28;45846;-59
2022/11/25 07:16:40;;;;;;;;;7.33;4.00;;;;;-146.44;100.00;58906.56;5007424;28;46338;-51
2022/11/25 07:19:06;;;;;;;;;6.67;5.00;;;;;-146.44;100.00;58906.56;5015995;28;45509;-55
2022/11/25 07:21:32;;;;;;;;;6.33;5.00;;;;;-146.44;100.00;58906.56;5015489;28;45565;-53
2022/11/25 07:24:02;;;;;;;;;5.33;5.33;;;;;-146.44;100.00;58906.56;5015652;28;45606;-53
2022/11/25 07:26:30;;;;;;;;;4.33;4.33;;;;;-146.44;100.00;58906.56;5015782;28;45512;-54
2022/11/25 07:29:01;;;;;;;;;3.00;3.00;;;;;-146.44;100.00;58906.56;5015714;28;45527;-55
2022/11/25 07:31:32;;;;;;;;;6.67;5.00;;;;;-146.44;100.00;58906.56;5015571;28;45526;-52
2022/11/25 07:34:03;;;;;;;;;10.67;6.00;;;;;-146.44;100.00;58906.56;5011928;28;45632;-62
2022/11/25 07:36:30;;;;;;;;;8.33;6.00;;;;;-146.44;100.00;58906.56;5009225;28;45512;-60
2022/11/25 07:38:57;;;;;;;;;5.00;5.00;;;;;-146.44;100.00;58906.56;5014113;28;45498;-48
2022/11/25 07:41:24;;;;;;;;;5.67;5.67;;;;;-146.44;100.00;58906.56;5015611;28;45489;-49
2022/11/25 07:43:53;;;;;;;;;7.33;6.00;;;;;-146.44;100.00;58906.56;5015314;28;45442;-49
2022/11/25 07:46:19;;;;;;;;;6.33;5.67;;;;;-146.44;100.00;58906.56;5015167;28;45532;-52
2022/11/25 07:48:46;;;;;;;;;7.00;7.00;;;;;-146.44;100.00;58906.56;5015457;28;45368;-52
2022/11/25 07:51:39;;;;;;;;;11.33;8.33;;;;;-146.44;100.00;58906.56;5015439;28;45520;-55
2022/11/25 07:54:06;;;;;;;;;9.00;6.00;;;;;-146.44;100.00;58906.56;5014988;28;45446;-52
2022/11/25 07:56:34;;;;;;;;;5.67;5.00;;;;;-146.44;100.00;58906.56;5015296;28;45493;-50
2022/11/25 07:58:59;;;;;;;;;8.00;6.00;;;;;-146.44;100.00;58906.56;5015049;28;45548;-52
2022/11/25 08:01:25;;;;;;;;;5.33;5.33;;;;;-146.44;100.00;58906.56;5015014;28;45516;-54
2022/11/25 08:03:50;;;;;;;;;6.00;6.00;;;;;-146.44;100.00;58906.56;5015124;28;45554;-54
2022/11/25 08:06:23;;;;;;;;;5.67;5.67;;;;;-146.44;100.00;58906.56;5014724;28;46206;-54
2022/11/25 08:08:48;;;;;;;;;5.33;5.00;;;;;-146.44;100.00;58906.56;5015229;28;45489;-57
2022/11/25 08:11:17;;;;;;;;;5.33;4.00;;;;;-146.44;100.00;58906.56;5014808;28;45502;-56
2022/11/25 08:13:42;;;;;;;;;6.00;6.00;;;;;-146.44;100.00;58906.56;5014706;28;45542;-52
2022/11/25 08:16:09;;;;;;;;;5.33;5.33;;;;;-146.44;100.00;58906.56;5015417;28;45994;-53
2022/11/25 08:18:34;;;;;;;;;8.67;6.00;;;;;-146.44;100.00;58906.56;5014881;28;45472;-55
2022/11/25 08:21:05;;;;;;;;;5.00;5.00;;;;;-146.44;100.00;58906.56;5014673;28;45411;-55
2022/11/25 08:23:32;;;;;;;;;10.33;9.67;;;;;-146.44;100.00;58906.56;5014434;28;45576;-52
2022/11/25 08:26:04;;;;;;;;;13.00;11.67;;;;;-146.44;100.00;58906.56;5014318;28;45430;-52
2022/11/25 08:28:29;;;;;;;;;8.67;8.67;;;;;-146.44;100.00;58906.56;5014771;28;45548;-54
2022/11/25 08:31:09;;;;;;;;;11.67;9.67;;;;;-146.44;100.00;58906.56;5014769;28;45509;-54
2022/11/25 08:33:34;;;;;;;;;8.67;8.33;;;;;-146.44;100.00;58906.56;5014816;28;45576;-55
2022/11/25 08:35:59;;;;;;;;;12.00;9.00;;;;;-146.44;100.00;58906.56;5014477;28;45669;-54
2022/11/25 08:38:26;;;;;;;;;8.67;8.67;;;;;-146.44;100.00;58906.56;5014440;28;45469;-53
2022/11/25 08:40:52;;;;;;;;;10.67;10.00;;;;;-146.44;100.00;58906.56;5014997;28;45410;-54
2022/11/25 08:43:20;;;;;;;;;8.00;6.67;;;;;-146.44;100.00;58906.56;5014537;28;45544;-55
2022/11/25 08:45:45;;;;;;;;;10.67;10.00;;;;;-146.44;100.00;58906.56;5014377;28;45473;-54
2022/11/25 08:48:11;;;;;;;;;9.00;7.33;;;;;-146.44;100.00;58906.56;5014228;28;45498;-53
2022/11/25 08:50:36;;;;;;;;;7.33;7.00;;;;;-146.44;100.00;58906.56;5013976;28;45395;-54
2022/11/25 08:53:01;;;;;;;;;9.67;9.00;;;;;-146.44;100.00;58906.56;5014285;28;45431;-55
2022/11/25 08:55:27;;;;;;;;;12.33;12.00;;;;;-146.44;100.00;58906.56;5014126;28;46431;-55
2022/11/25 08:57:53;;;;;;;;;9.33;7.67;;;;;-146.44;100.00;58906.56;5014148;28;45615;-52
2022/11/25 09:00:20;;;;;;;;;11.33;8.67;;;;;-146.44;100.00;58906.56;5014265;28;45465;-53
2022/11/25 09:02:45;;;;;;;;;6.00;6.00;;;;;-146.44;100.00;58906.56;5014007;28;45545;-52
2022/11/25 09:05:14;;;;;;;;;10.00;6.00;;;;;-146.44;100.00;58906.56;5014009;28;45430;-55
2022/11/25 09:07:40;;;;;;;;;5.00;5.00;;;;;-146.44;100.00;58906.56;5014210;28;45580;-54
2022/11/25 09:10:08;;;;;;;;;11.00;9.33;;;;;-146.44;100.00;58906.56;5014194;28;45500;-56
2022/11/25 09:12:34;;;;;;;;;10.33;9.33;;;;;-146.44;100.00;58906.56;5014176;28;46019;-55
2022/11/25 09:14:59;;;;;;;;;9.67;7.00;;;;;-146.44;100.00;58906.56;5013638;28;45631;-54
2022/11/25 09:17:26;;;;;;;;;8.00;8.00;;;;;-146.44;100.00;58906.56;5014739;28;45510;-54
2022/11/25 09:19:51;;;;;;;;;5.00;5.00;;;;;-146.44;100.00;58906.56;5029383;28;45451;-55
2022/11/25 09:22:17;;;;;;;;;12.67;12.00;;;;;-146.44;100.00;58906.56;5013917;28;45537;-53
2022/11/25 09:24:44;;;;;;;;;8.00;8.00;;;;;-146.44;100.00;58906.56;5013627;28;45515;-56
2022/11/25 09:27:09;;;;;;;;;5.00;4.00;;;;;-146.44;100.00;58906.56;5013698;28;45383;-56
2022/11/25 09:29:34;;;;;;;;;8.00;6.00;;;;;-146.44;100.00;58906.56;5013815;28;45904;-56
2022/11/25 09:32:00;;;;;;;;;6.00;4.67;;;;;-146.44;100.00;58906.56;5013460;28;45591;-52
2022/11/25 09:34:25;;;;;;;;;13.67;10.33;;;;;-146.44;100.00;58906.56;5013800;28;45465;-55
2022/11/25 09:36:50;;;;;;;;;5.33;5.33;;;;;-146.44;100.00;58906.56;5013635;28;45506;-51
2022/11/25 09:39:16;;;;;;;;;8.67;8.67;;;;;-146.44;100.00;58906.56;5013646;28;45520;-55
2022/11/25 09:48:20;;;;;;;;;9.00;9.00;;;;;-146.44;100.00;58906.56;5013573;28;45513;-55
2022/11/25 09:51:17;;;;;;;;;10.67;6.00;;;;;-146.44;100.00;58906.56;5013636;28;45505;-51
2022/11/25 09:53:48;;;;;;;;;5.00;4.00;;;;;-146.44;100.00;58906.56;5013341;28;45482;-54
2022/11/25 09:56:37;;;;;;;;;11.67;7.33;;;;;-146.44;100.00;58906.56;5013143;28;46418;-53
2022/11/25 09:59:14;;;;;;;;;4.67;3.67;;;;;-146.44;100.00;58906.56;5013520;28;45527;-56
2022/11/25 10:01:52;;;;;;;;;3.33;3.33;;;;;-146.44;100.00;58906.56;5013596;28;45526;-52
2022/11/25 10:04:39;;;;;;;;;7.00;5.33;;;;;-146.44;100.00;58906.56;5016885;28;45647;-55
2022/11/25 10:07:19;;;;;;;;;4.00;4.00;;;;;-146.44;100.00;58906.56;5031639;28;45438;-55
2022/11/25 10:09:44;;;;;;;;;3.33;3.33;;;;;-146.44;100.00;58906.56;5016708;28;45505;-54
2022/11/25 10:12:22;;;;;;;;;5.33;4.33;;;;;-146.44;100.00;58906.56;5016996;28;45404;-55
2022/11/25 10:14:53;;;;;;;;;5.00;3.33;;;;;-146.44;100.00;58906.56;5015575;28;45595;-54
2022/11/25 10:17:38;;;;;;;;;6.00;6.00;;;;;-146.44;100.00;58906.56;5017380;28;46415;-52
2022/11/25 10:20:12;;;;;;;;;5.67;5.67;;;;;-146.44;100.00;58906.56;5016637;28;45564;-54
2022/11/25 10:22:43;;;;;;;;;9.33;5.00;;;;;-146.44;100.00;58906.56;5016750;28;45508;-54
2022/11/25 10:25:13;;;;;;;;;5.00;4.00;;;;;-146.44;100.00;58906.56;5016376;28;45505;-52
2022/11/25 10:28:05;;;;;;;;;4.67;4.67;;;;;-146.44;100.00;58906.56;5016662;28;45527;-53
2022/11/25 10:30:40;;;;;;;;;6.00;6.00;;;;;-146.44;100.00;58906.56;5015164;28;45480;-57
2022/11/25 10:33:12;;;;;;;;;3.00;3.00;;;;;-146.44;100.00;58906.56;5017288;28;45576;-53
2022/11/25 10:35:44;;;;;;;;;7.67;5.33;;;;;-146.44;100.00;58906.56;5004204;28;45525;-51
2022/11/25 10:38:21;;;;;;;;;5.33;5.33;;;;;-146.44;100.00;58906.56;5016109;28;46416;-50
2022/11/25 10:40:51;;;;;;;;;5.67;5.00;;;;;-146.44;100.00;58906.56;5016626;28;45497;-49
2022/11/25 10:43:17;;;;;;;;;3.33;3.33;;;;;-146.44;100.00;58906.56;5024523;28;45486;-60
2022/11/25 10:46:17;;;;;;;;;10.33;6.00;;;;;-146.44;100.00;58906.56;5023863;28;46228;-60
2022/11/25 10:48:51;;;;;;;;;5.33;3.67;;;;;-146.44;100.00;58906.56;5015985;28;45510;-61
2022/11/25 10:51:28;;;;;;;;;4.00;2.67;;;;;-146.44;100.00;58906.56;5016457;28;45529;-62
2022/11/25 10:54:15;;;;;;;;;7.00;5.33;;;;;-146.44;100.00;58906.56;5015710;28;45484;-64
2022/11/25 10:56:49;;;;;;;;;6.67;4.33;;;;;-146.44;100.00;58906.56;5016467;28;45580;-62
2022/11/25 10:59:30;;;;;;;;;2.00;2.00;;;;;-146.44;100.00;58906.56;5020343;28;46258;-50
2022/11/25 11:02:16;;;;;;;;;5.00;3.33;;;;;-146.44;100.00;58906.56;5015910;28;45688;-52
2022/11/25 11:04:50;;;;;;;;;5.33;4.00;;;;;-146.44;100.00;58906.56;5015560;28;45545;-52
2022/11/25 11:07:15;;;;;;;;;3.67;3.67;;;;;-146.44;100.00;58906.56;5014549;28;45522;-50
2022/11/25 11:09:40;;;;;;;;;5.00;4.00;;;;;-146.44;100.00;58906.56;5015314;28;45477;-53
2022/11/25 11:12:22;;;;;;;;;9.33;7.00;;;;;-146.44;100.00;58906.56;5014860;28;45399;-50
2022/11/25 11:14:48;;;;;;;;;5.00;5.00;;;;;-146.44;100.00;58906.56;5015623;28;45466;-50
2022/11/25 11:17:32;;;;;;;;;3.00;3.00;;;;;-146.44;100.00;58906.56;5016522;28;45640;-52
2022/11/25 11:20:06;;;;;;;;;7.00;5.67;;;;;-146.44;100.00;58906.56;5015644;28;45517;-49
2022/11/25 11:22:33;;;;;;;;;6.33;4.00;;;;;-146.44;100.00;58906.56;5015485;28;45498;-48
2022/11/25 11:25:32;;;;;;;;;5.67;5.67;;;;;-146.44;100.00;58906.56;5015447;28;45530;-49